Time;durP1;ratioP1;P1;durP2;ratioP2;P2;SDS_P1;SDS_P2;PMS_P1;PMS_P2;Temp;Humidity;BMP_temperature;BMP_pressure;BME280_temperature;BME280_humidity;BME280_pressure;Samples;Min_cycle;Max_cycle;Signal;HPM_P1;HPM_P2
2021/01/14 00:02:04;;;;;;;1.35;1.02;;;11.20;85.60;;;;;;5042680;28;20532;-71
2021/01/14 00:04:30;;;;;;;3.03;1.60;;;11.20;85.60;;;;;;5044217;28;20036;-72
2021/01/14 00:06:57;;;;;;;2.90;1.40;;;11.20;85.60;;;;;;5026484;28;20036;-71
2021/01/14 00:09:24;;;;;;;2.53;1.50;;;11.20;85.60;;;;;;5044409;28;20053;-72
2021/01/14 00:11:50;;;;;;;4.82;1.42;;;11.20;85.60;;;;;;5042498;28;20061;-72
2021/01/14 00:14:16;;;;;;;4.00;1.80;;;11.20;85.60;;;;;;5043085;28;20472;-71
2021/01/14 00:16:42;;;;;;;5.88;1.70;;;11.10;85.40;;;;;;5042943;28;20045;-73
2021/01/14 00:19:08;;;;;;;3.80;1.70;;;11.20;85.60;;;;;;5052783;28;20031;-72
2021/01/14 00:21:43;;;;;;;1.52;1.23;;;11.10;85.40;;;;;;5063083;28;20056;-72
2021/01/14 00:24:09;;;;;;;2.50;1.42;;;11.20;85.60;;;;;;5042386;28;20162;-72
2021/01/14 00:26:36;;;;;;;2.35;1.50;;;11.10;85.40;;;;;;5042792;28;20029;-72
2021/01/14 00:29:03;;;;;;;6.95;1.80;;;11.10;85.40;;;;;;5038560;28;20156;-72
2021/01/14 00:31:29;;;;;;;1.48;1.38;;;11.10;85.40;;;;;;5042759;28;20021;-72
2021/01/14 00:33:56;;;;;;;1.73;1.40;;;11.10;85.40;;;;;;5042976;28;20029;-71
2021/01/14 00:36:31;;;;;;;4.38;1.88;;;11.10;85.40;;;;;;5042798;28;20082;-71
2021/01/14 00:38:59;;;;;;;3.45;2.00;;;11.10;85.30;;;;;;5043927;28;20048;-72
2021/01/14 00:41:25;;;;;;;5.72;1.85;;;11.10;85.30;;;;;;5047722;28;20028;-71
2021/01/14 00:43:51;;;;;;;1.48;1.30;;;11.10;85.30;;;;;;5048561;28;20373;-71
2021/01/14 00:46:18;;;;;;;2.45;1.30;;;11.10;85.30;;;;;;5046489;28;20150;-71
2021/01/14 00:48:45;;;;;;;2.70;1.63;;;11.10;85.30;;;;;;5050721;28;20029;-71
2021/01/14 00:51:11;;;;;;;2.05;1.20;;;11.10;85.30;;;;;;5067490;28;20115;-71
2021/01/14 00:53:38;;;;;;;1.20;1.10;;;11.10;85.30;;;;;;5056426;28;20091;-72
2021/01/14 00:56:05;;;;;;;3.15;1.20;;;11.10;85.30;;;;;;5048475;28;20131;-73
2021/01/14 00:58:33;;;;;;;2.88;1.52;;;11.10;85.30;;;;;;5046921;28;20117;-73
2021/01/14 01:00:59;;;;;;;1.88;1.55;;;11.10;85.30;;;;;;5046752;28;20120;-72
2021/01/14 01:03:25;;;;;;;3.45;1.30;;;11.10;85.30;;;;;;5032683;28;20083;-72
2021/01/14 01:05:51;;;;;;;4.05;1.75;;;11.10;85.30;;;;;;5047336;28;20293;-72
2021/01/14 01:08:17;;;;;;;4.90;1.55;;;11.10;85.30;;;;;;5047498;28;20804;-72
2021/01/14 01:10:43;;;;;;;1.70;1.13;;;11.10;85.30;;;;;;5046093;28;20136;-72
2021/01/14 01:13:09;;;;;;;1.95;1.33;;;11.10;85.30;;;;;;5046389;28;20091;-72
2021/01/14 01:15:35;;;;;;;3.00;1.25;;;11.00;85.10;;;;;;5047277;28;20044;-72
2021/01/14 01:18:01;;;;;;;1.27;1.10;;;11.00;85.20;;;;;;5045561;28;20057;-72
2021/01/14 01:20:28;;;;;;;2.13;1.30;;;11.00;85.20;;;;;;5047687;28;20363;-71
2021/01/14 01:22:56;;;;;;;2.05;1.13;;;11.00;85.10;;;;;;5045688;28;20453;-72
2021/01/14 01:25:22;;;;;;;2.13;1.17;;;11.00;85.20;;;;;;5029383;28;20064;-72
2021/01/14 01:27:48;;;;;;;1.30;0.90;;;11.00;85.20;;;;;;5046253;28;20088;-72
2021/01/14 01:30:14;;;;;;;2.22;1.10;;;11.00;85.10;;;;;;5045115;28;20065;-73
2021/01/14 01:32:40;;;;;;;3.00;1.35;;;11.00;85.10;;;;;;5045793;28;20094;-71
2021/01/14 01:35:07;;;;;;;4.07;1.27;;;11.00;85.10;;;;;;5044900;28;20028;-72
2021/01/14 01:37:33;;;;;;;2.03;1.10;;;11.00;85.10;;;;;;5029249;28;20041;-71
2021/01/14 01:39:59;;;;;;;1.85;1.13;;;11.00;85.10;;;;;;5060391;28;20519;-71
2021/01/14 01:42:25;;;;;;;1.35;1.17;;;11.00;85.10;;;;;;5065232;28;20140;-71
2021/01/14 01:44:51;;;;;;;0.82;0.82;;;11.00;85.10;;;;;;5065269;28;20067;-71
2021/01/14 01:47:18;;;;;;;1.58;1.23;;;11.00;85.10;;;;;;5065891;28;20341;-71
2021/01/14 01:49:44;;;;;;;4.38;1.27;;;11.00;85.10;;;;;;5065340;28;20464;-72
2021/01/14 01:52:10;;;;;;;1.55;1.00;;;11.00;85.60;;;;;;5065092;28;20040;-70
2021/01/14 01:54:36;;;;;;;2.55;1.10;;;11.00;85.10;;;;;;5042681;28;20040;-72
2021/01/14 01:57:05;;;;;;;1.42;0.90;;;11.00;85.10;;;;;;5028594;28;20040;-71
2021/01/14 01:59:32;;;;;;;1.33;1.10;;;11.00;85.10;;;;;;5056459;28;20892;-71
2021/01/14 02:02:17;;;;;;;1.95;0.90;;;11.00;85.10;;;;;;5064855;28;20037;-72
2021/01/14 02:04:43;;;;;;;2.80;1.13;;;11.00;85.10;;;;;;5065051;28;20035;-72
2021/01/14 02:07:11;;;;;;;3.15;1.08;;;11.00;85.10;;;;;;5048720;28;20440;-71
2021/01/14 02:09:39;;;;;;;2.78;1.20;;;11.00;85.10;;;;;;5053818;28;20040;-71
2021/01/14 02:12:06;;;;;;;0.73;0.73;;;11.00;85.10;;;;;;5054657;28;20039;-72
2021/01/14 02:14:34;;;;;;;1.02;0.90;;;11.00;85.10;;;;;;5049813;28;20037;-72
2021/01/14 02:17:00;;;;;;;1.40;0.95;;;11.00;85.10;;;;;;5045497;28;20036;-72
2021/01/14 02:19:39;;;;;;;0.80;0.80;;;11.00;85.10;;;;;;5045220;28;20050;-72
2021/01/14 02:22:16;;;;;;;3.63;1.10;;;11.00;85.10;;;;;;5044587;28;20051;-72
2021/01/14 02:25:02;;;;;;;2.20;1.20;;;11.00;85.10;;;;;;5044581;28;20167;-72
2021/01/14 02:27:29;;;;;;;0.80;0.80;;;11.00;85.10;;;;;;5044645;28;20032;-71
2021/01/14 02:29:57;;;;;;;5.45;0.80;;;11.00;85.10;;;;;;5046161;28;20033;-71
2021/01/14 02:32:24;;;;;;;1.33;1.20;;;11.00;85.10;;;;;;5066263;28;20622;-71
2021/01/14 02:34:53;;;;;;;1.98;1.02;;;11.00;85.10;;;;;;5066370;28;20124;-71
2021/01/14 02:37:19;;;;;;;0.85;0.85;;;11.00;85.10;;;;;;5049334;28;20097;-72
2021/01/14 02:39:45;;;;;;;0.98;0.93;;;11.00;85.10;;;;;;5065903;28;20451;-72
2021/01/14 02:42:11;;;;;;;0.90;0.90;;;11.00;85.10;;;;;;5065545;28;20415;-71
2021/01/14 02:44:37;;;;;;;4.63;1.08;;;11.00;85.10;;;;;;5067117;28;20066;-71
2021/01/14 02:47:05;;;;;;;3.10;1.02;;;11.00;85.10;;;;;;5067141;28;20044;-72
2021/01/14 02:49:38;;;;;;;1.17;1.08;;;11.00;85.10;;;;;;5070604;28;20498;-71
2021/01/14 02:52:06;;;;;;;2.15;1.17;;;11.00;85.10;;;;;;5070672;28;20090;-72
2021/01/14 02:54:34;;;;;;;2.47;1.00;;;11.00;85.10;;;;;;5063535;28;20122;-72
2021/01/14 02:57:00;;;;;;;1.13;0.90;;;11.00;85.10;;;;;;5050483;28;20044;-72
2021/01/14 02:59:26;;;;;;;2.20;1.00;;;11.00;85.10;;;;;;5050593;28;20021;-71
2021/01/14 03:01:52;;;;;;;0.80;0.80;;;11.00;85.10;;;;;;5050214;28;20043;-72
2021/01/14 03:04:18;;;;;;;1.05;0.90;;;11.00;85.10;;;;;;5050240;28;20031;-72
2021/01/14 03:06:44;;;;;;;1.02;0.90;;;11.00;85.10;;;;;;5049948;28;20423;-72
2021/01/14 03:09:10;;;;;;;0.70;0.70;;;11.00;85.10;;;;;;5048916;28;20033;-72
2021/01/14 03:11:36;;;;;;;0.80;0.80;;;11.00;85.10;;;;;;5048304;28;20389;-71
2021/01/14 03:14:02;;;;;;;1.23;1.10;;;11.00;85.10;;;;;;5048712;28;20104;-71
2021/01/14 03:16:29;;;;;;;1.00;0.90;;;11.00;85.10;;;;;;5049734;28;20041;-71
2021/01/14 03:18:55;;;;;;;1.02;0.95;;;11.00;85.10;;;;;;5049818;28;20068;-71
2021/01/14 03:21:24;;;;;;;1.90;1.15;;;11.00;85.10;;;;;;5049930;28;20056;-71
2021/01/14 03:23:52;;;;;;;1.80;0.80;;;11.00;85.10;;;;;;5048689;28;20029;-71
2021/01/14 03:26:19;;;;;;;0.77;0.75;;;11.00;85.10;;;;;;5050256;28;20116;-71
2021/01/14 03:28:47;;;;;;;0.80;0.80;;;11.00;85.10;;;;;;5050085;28;20472;-71
2021/01/14 03:31:14;;;;;;;0.80;0.80;;;11.00;85.10;;;;;;5050170;28;20423;-70
2021/01/14 03:33:41;;;;;;;0.80;0.80;;;11.00;85.10;;;;;;5048421;28;20460;-70
2021/01/14 03:36:08;;;;;;;0.73;0.73;;;11.00;85.10;;;;;;5048553;28;20113;-70
2021/01/14 03:38:36;;;;;;;0.98;0.98;;;11.00;85.10;;;;;;5050184;28;20033;-71
2021/01/14 03:41:09;;;;;;;0.80;0.70;;;11.00;85.10;;;;;;5049886;28;20433;-71
2021/01/14 03:43:37;;;;;;;1.85;0.90;;;11.00;85.10;;;;;;5048306;28;20040;-72
2021/01/14 03:46:08;;;;;;;1.58;0.98;;;11.00;85.10;;;;;;5050144;28;20060;-72
2021/01/14 03:48:42;;;;;;;4.40;1.45;;;11.00;85.10;;;;;;5048900;28;20508;-72
2021/01/14 03:51:22;;;;;;;1.42;0.90;;;11.00;85.10;;;;;;5050045;28;20029;-72
2021/01/14 03:53:52;;;;;;;0.70;0.70;;;11.00;85.10;;;;;;5048240;28;20025;-72
2021/01/14 03:56:18;;;;;;;1.02;0.77;;;11.00;85.10;;;;;;5069383;28;20085;-71
2021/01/14 03:58:45;;;;;;;2.28;1.08;;;11.00;85.10;;;;;;5069905;28;20201;-71
2021/01/14 04:01:11;;;;;;;0.95;0.85;;;11.00;85.10;;;;;;5068116;28;20032;-71
2021/01/14 04:03:43;;;;;;;1.20;0.90;;;11.00;85.10;;;;;;5069480;28;20025;-72
2021/01/14 04:06:10;;;;;;;1.15;0.85;;;11.00;85.10;;;;;;5069240;28;20111;-72
2021/01/14 04:08:36;;;;;;;1.58;0.82;;;11.00;85.10;;;;;;5069950;28;20097;-71
2021/01/14 04:11:03;;;;;;;2.28;0.73;;;10.90;84.90;;;;;;5068663;28;20048;-71
2021/01/14 04:13:30;;;;;;;1.10;0.88;;;11.00;85.10;;;;;;5068027;28;20033;-72
2021/01/14 04:15:56;;;;;;;1.15;0.90;;;11.00;85.10;;;;;;5069199;28;20472;-71
2021/01/14 04:18:22;;;;;;;0.85;0.85;;;11.00;85.10;;;;;;5068387;28;20263;-72
2021/01/14 04:20:48;;;;;;;1.02;0.70;;;11.00;85.10;;;;;;5068012;28;20032;-71
2021/01/14 04:23:14;;;;;;;0.85;0.82;;;11.00;85.10;;;;;;5067386;28;20131;-72
2021/01/14 04:25:40;;;;;;;0.77;0.70;;;11.00;85.10;;;;;;5068619;28;20472;-71
2021/01/14 04:28:06;;;;;;;1.13;1.00;;;11.00;85.10;;;;;;5069275;28;20456;-72
2021/01/14 04:30:33;;;;;;;1.92;1.10;;;11.00;85.10;;;;;;5069291;28;20028;-72
2021/01/14 04:33:10;;;;;;;2.15;0.95;;;11.00;85.10;;;;;;5068688;28;20029;-72
2021/01/14 04:35:54;;;;;;;0.80;0.80;;;11.00;85.10;;;;;;5067552;28;20132;-71
2021/01/14 04:38:23;;;;;;;0.82;0.82;;;11.00;85.10;;;;;;5069024;28;20040;-72
2021/01/14 04:41:03;;;;;;;1.10;0.90;;;11.00;85.10;;;;;;5067845;28;20016;-71
2021/01/14 04:43:33;;;;;;;0.85;0.70;;;11.00;85.10;;;;;;5067674;28;20079;-72
2021/01/14 04:46:08;;;;;;;1.45;0.90;;;11.00;85.10;;;;;;5067482;28;20236;-72
2021/01/14 04:48:38;;;;;;;1.88;0.80;;;11.00;85.10;;;;;;5067254;28;20113;-71
2021/01/14 04:51:15;;;;;;;1.02;0.93;;;11.00;85.10;;;;;;5068505;28;20035;-71
2021/01/14 04:53:44;;;;;;;0.98;0.88;;;11.00;85.10;;;;;;5067442;28;20471;-71
2021/01/14 04:56:11;;;;;;;0.98;0.80;;;10.90;84.90;;;;;;5046945;28;20037;-71
2021/01/14 04:58:40;;;;;;;0.82;0.80;;;11.00;85.10;;;;;;5063432;28;20059;-72
2021/01/14 05:01:16;;;;;;;1.10;1.00;;;11.00;85.10;;;;;;5048645;28;20124;-71
2021/01/14 05:03:51;;;;;;;0.70;0.70;;;11.00;85.10;;;;;;5048396;28;20037;-71
2021/01/14 05:06:20;;;;;;;1.17;0.88;;;11.00;85.10;;;;;;5048634;28;20029;-71
2021/01/14 05:08:47;;;;;;;1.00;0.82;;;11.00;85.10;;;;;;5063738;28;20033;-71
2021/01/14 05:11:15;;;;;;;0.73;0.73;;;11.00;85.10;;;;;;5048317;28;20523;-71
2021/01/14 05:13:43;;;;;;;1.27;0.88;;;11.00;85.10;;;;;;5048201;28;20029;-72
2021/01/14 05:16:09;;;;;;;2.75;1.08;;;11.00;85.10;;;;;;5063828;28;20033;-71
2021/01/14 05:18:36;;;;;;;1.77;1.15;;;11.00;85.10;;;;;;5047605;28;20029;-72
2021/01/14 05:21:02;;;;;;;0.93;0.90;;;10.90;85.00;;;;;;5047120;28;20041;-71
2021/01/14 05:23:31;;;;;;;0.70;0.70;;;11.00;85.10;;;;;;5063371;28;20116;-72
2021/01/14 05:25:59;;;;;;;0.98;0.80;;;10.90;85.00;;;;;;5049450;28;20033;-72
2021/01/14 05:28:26;;;;;;;0.80;0.80;;;10.90;85.00;;;;;;5067209;28;20033;-71
2021/01/14 05:30:52;;;;;;;0.98;0.75;;;11.00;85.10;;;;;;5067258;28;20106;-71
2021/01/14 05:33:21;;;;;;;0.90;0.90;;;11.00;85.10;;;;;;5051615;28;20124;-71
2021/01/14 05:35:51;;;;;;;0.73;0.73;;;11.00;85.10;;;;;;5067318;28;20037;-71
2021/01/14 05:38:26;;;;;;;1.10;0.90;;;11.00;85.10;;;;;;5066974;28;20119;-71
2021/01/14 05:41:18;;;;;;;0.80;0.80;;;11.00;85.10;;;;;;5066125;28;20032;-71
2021/01/14 05:43:48;;;;;;;1.48;0.90;;;11.00;85.10;;;;;;5050937;28;20414;-72
2021/01/14 05:46:16;;;;;;;1.17;1.10;;;11.00;85.10;;;;;;5051826;28;20572;-72
2021/01/14 05:48:43;;;;;;;1.00;0.70;;;11.00;85.10;;;;;;5063088;28;20087;-72
2021/01/14 05:51:21;;;;;;;0.82;0.82;;;11.00;85.10;;;;;;5047446;28;20032;-72
2021/01/14 05:54:02;;;;;;;1.58;0.90;;;11.00;85.20;;;;;;5046350;28;20029;-73
2021/01/14 05:56:32;;;;;;;0.90;0.90;;;11.00;85.20;;;;;;5050349;28;20029;-72
2021/01/14 05:59:00;;;;;;;1.08;1.00;;;11.00;85.10;;;;;;5054698;28;20056;-72
2021/01/14 06:01:26;;;;;;;2.17;1.15;;;11.00;85.10;;;;;;5046121;28;20425;-72
2021/01/14 06:03:52;;;;;;;1.40;0.90;;;11.00;85.20;;;;;;5046101;28;20039;-72
2021/01/14 06:06:20;;;;;;;1.58;1.30;;;11.00;85.10;;;;;;5061422;28;20479;-71
2021/01/14 06:08:46;;;;;;;1.20;1.05;;;11.00;85.10;;;;;;5053996;28;20343;-71
2021/01/14 06:11:23;;;;;;;1.77;1.10;;;11.00;85.20;;;;;;5048858;28;20039;-73
2021/01/14 06:13:50;;;;;;;1.52;1.25;;;11.00;85.20;;;;;;5050220;28;20487;-74
2021/01/14 06:16:16;;;;;;;2.42;1.20;;;11.00;85.10;;;;;;5051086;28;20092;-75
2021/01/14 06:19:05;;;;;;;1.30;1.00;;;11.00;85.10;;;;;;5039684;28;20028;-72
2021/01/14 06:21:49;;;;;;;8.77;1.40;;;11.00;85.20;;;;;;5044081;28;20028;-72
2021/01/14 06:24:24;;;;;;;1.20;1.10;;;11.00;85.20;;;;;;5054313;28;20024;-71
2021/01/14 06:26:53;;;;;;;2.38;1.45;;;11.00;85.10;;;;;;5072673;28;20055;-73
2021/01/14 06:29:24;;;;;;;1.42;1.30;;;11.00;85.10;;;;;;5052666;28;20106;-75
2021/01/14 06:31:50;;;;;;;1.20;1.08;;;11.00;85.10;;;;;;5051686;28;20037;-74
2021/01/14 06:34:21;;;;;;;1.42;1.20;;;11.00;85.10;;;;;;5043450;28;20037;-74
2021/01/14 06:36:49;;;;;;;1.90;1.42;;;11.00;85.10;;;;;;5048750;28;20045;-73
2021/01/14 06:39:18;;;;;;;2.30;1.70;;;11.00;85.10;;;;;;5027107;28;20115;-73
2021/01/14 06:41:46;;;;;;;4.78;2.45;;;11.00;85.20;;;;;;5055390;28;20435;-73
2021/01/14 06:44:14;;;;;;;2.15;1.40;;;11.00;85.20;;;;;;5056505;28;20637;-73
2021/01/14 06:46:40;;;;;;;3.15;1.90;;;10.90;85.50;;;;;;5049185;28;20056;-72
2021/01/14 06:49:11;;;;;;;2.35;1.70;;;11.00;85.20;;;;;;5045182;28;20032;-73
2021/01/14 06:51:56;;;;;;;2.67;1.88;;;10.90;85.00;;;;;;5046714;28;20424;-73
2021/01/14 06:54:24;;;;;;;2.70;1.60;;;10.90;85.00;;;;;;5054016;28;20150;-75
2021/01/14 06:57:18;;;;;;;2.35;1.48;;;10.90;85.00;;;;;;5045202;28;20071;-74
2021/01/14 06:59:44;;;;;;;2.42;1.75;;;10.90;85.00;;;;;;5043586;28;20051;-74
2021/01/14 07:02:31;;;;;;;2.13;1.60;;;10.90;85.00;;;;;;5029329;28;20329;-73
2021/01/14 07:05:04;;;;;;;2.47;1.77;;;10.90;85.00;;;;;;5063701;28;20038;-73
2021/01/14 07:07:45;;;;;;;4.18;1.80;;;10.90;85.00;;;;;;5062966;28;20034;-73
2021/01/14 07:10:12;;;;;;;2.38;1.70;;;10.90;85.00;;;;;;5048636;28;20552;-74
2021/01/14 07:12:40;;;;;;;3.30;2.20;;;10.90;85.00;;;;;;5041395;28;20121;-72
2021/01/14 07:15:13;;;;;;;2.08;1.58;;;10.90;85.00;;;;;;5040701;28;20064;-73
2021/01/14 07:17:45;;;;;;;3.08;2.28;;;10.90;85.00;;;;;;5042020;28;20052;-73
2021/01/14 07:20:17;;;;;;;2.53;1.90;;;10.90;85.00;;;;;;5058703;28;20089;-74
2021/01/14 07:22:47;;;;;;;3.17;1.92;;;10.90;85.00;;;;;;5058952;28;20036;-74
2021/01/14 07:25:14;;;;;;;2.97;2.17;;;10.90;85.00;;;;;;5041526;28;20032;-72
2021/01/14 07:27:42;;;;;;;2.78;1.85;;;10.90;85.00;;;;;;5026311;28;20037;-73
2021/01/14 07:30:10;;;;;;;2.38;2.17;;;10.90;85.00;;;;;;5044378;28;20029;-72
2021/01/14 07:32:58;;;;;;;3.80;2.33;;;10.90;85.00;;;;;;5044895;28;20368;-72
2021/01/14 07:35:44;;;;;;;3.78;2.35;;;10.90;85.10;;;;;;5042522;28;20555;-71
2021/01/14 07:38:16;;;;;;;2.92;2.38;;;10.90;85.00;;;;;;5045068;28;20036;-71
2021/01/14 07:40:44;;;;;;;3.35;2.38;;;10.90;85.00;;;;;;5043191;28;20021;-71
2021/01/14 07:43:14;;;;;;;6.20;2.53;;;10.90;85.00;;;;;;5042852;28;20029;-71
2021/01/14 07:45:44;;;;;;;5.60;2.75;;;10.90;85.10;;;;;;5044967;28;20035;-70
2021/01/14 07:48:24;;;;;;;4.75;2.72;;;10.80;84.90;;;;;;5051330;28;20033;-71
2021/01/14 07:50:53;;;;;;;3.92;2.70;;;10.80;84.90;;;;;;5055057;28;20028;-72
2021/01/14 07:53:20;;;;;;;3.40;2.35;;;10.90;85.10;;;;;;5058493;28;20452;-71
2021/01/14 07:55:47;;;;;;;3.75;2.63;;;10.80;84.90;;;;;;5044433;28;20060;-70
2021/01/14 07:58:20;;;;;;;4.20;3.40;;;10.80;84.90;;;;;;5044362;28;20029;-70
2021/01/14 08:01:07;;;;;;;6.25;3.30;;;10.80;84.90;;;;;;5044371;28;20112;-70
2021/01/14 08:03:37;;;;;;;3.50;2.90;;;10.80;85.00;;;;;;5039507;28;20515;-71
2021/01/14 08:06:26;;;;;;;5.72;3.60;;;10.80;85.00;;;;;;5042876;28;20415;-71
2021/01/14 08:09:03;;;;;;;5.95;2.97;;;10.80;84.90;;;;;;5047574;28;20056;-71
2021/01/14 08:11:34;;;;;;;4.90;3.63;;;10.80;84.90;;;;;;5044024;28;20488;-71
2021/01/14 08:14:00;;;;;;;5.80;3.50;;;10.80;84.90;;;;;;5053962;28;20032;-71
2021/01/14 08:16:34;;;;;;;4.65;3.75;;;10.80;84.90;;;;;;5062329;28;20033;-70
2021/01/14 08:19:29;;;;;;;4.57;3.72;;;10.80;85.00;;;;;;5063897;28;20032;-71
2021/01/14 08:21:59;;;;;;;5.57;4.28;;;10.80;85.00;;;;;;5043727;28;20052;-74
2021/01/14 08:24:53;;;;;;;4.63;3.70;;;10.80;84.90;;;;;;5043902;28;20128;-72
2021/01/14 08:27:32;;;;;;;4.88;3.80;;;10.80;85.00;;;;;;5042722;28;20464;-72
2021/01/14 08:30:02;;;;;;;5.22;4.25;;;10.80;84.90;;;;;;5042012;28;20183;-72
2021/01/14 08:32:28;;;;;;;5.75;4.43;;;10.80;84.90;;;;;;5044499;28;20464;-72
2021/01/14 08:34:55;;;;;;;5.30;4.20;;;10.80;84.90;;;;;;5042079;28;20116;-71
2021/01/14 08:37:35;;;;;;;5.53;4.57;;;10.80;84.90;;;;;;5026163;28;20059;-72
2021/01/14 08:40:09;;;;;;;6.15;4.75;;;10.80;85.00;;;;;;5041782;28;20119;-71
2021/01/14 08:42:47;;;;;;;5.47;4.68;;;10.80;84.90;;;;;;5042961;28;20029;-72
2021/01/14 08:45:14;;;;;;;8.65;4.90;;;10.80;84.90;;;;;;5042367;28;20183;-71
2021/01/14 08:47:58;;;;;;;8.43;5.18;;;10.90;85.10;;;;;;5043349;28;20041;-71
2021/01/14 08:50:44;;;;;;;6.07;4.55;;;10.80;85.00;;;;;;5055095;28;20511;-72
2021/01/14 08:53:27;;;;;;;4.38;3.97;;;10.80;84.90;;;;;;5043366;28;20024;-72
2021/01/14 08:56:00;;;;;;;4.28;3.78;;;10.80;84.90;;;;;;5043902;28;20037;-73
2021/01/14 08:58:32;;;;;;;4.97;4.20;;;10.80;84.90;;;;;;5044074;28;20037;-72
2021/01/14 09:00:58;;;;;;;7.13;3.63;;;10.90;85.10;;;;;;5043735;28;20029;-73
2021/01/14 09:03:27;;;;;;;5.20;3.78;;;10.80;84.90;;;;;;5046798;28;20028;-73
2021/01/14 09:05:54;;;;;;;5.22;3.33;;;10.80;84.90;;;;;;5046274;28;20037;-72
2021/01/14 09:08:21;;;;;;;3.65;3.28;;;10.90;85.10;;;;;;5029456;28;20075;-72
2021/01/14 09:11:05;;;;;;;4.30;3.55;;;10.80;84.90;;;;;;5046500;28;20443;-72
2021/01/14 09:13:33;;;;;;;4.15;3.28;;;10.90;85.10;;;;;;5029625;28;20389;-73
2021/01/14 09:16:10;;;;;;;4.35;3.03;;;10.90;85.10;;;;;;5045854;28;20048;-72
2021/01/14 09:18:41;;;;;;;4.25;3.72;;;10.90;85.10;;;;;;5046239;28;20116;-72
2021/01/14 09:21:09;;;;;;;4.28;3.08;;;10.90;85.10;;;;;;5045483;28;20027;-71
2021/01/14 09:23:36;;;;;;;4.72;3.33;;;10.90;85.10;;;;;;5046075;28;20425;-71
2021/01/14 09:26:11;;;;;;;7.22;3.50;;;10.80;84.90;;;;;;5046492;28;20447;-72
2021/01/14 09:28:38;;;;;;;2.97;2.58;;;10.90;85.10;;;;;;5046158;28;20582;-72
2021/01/14 09:31:06;;;;;;;2.97;2.78;;;10.90;85.10;;;;;;5047236;28;20123;-72
2021/01/14 09:33:35;;;;;;;3.13;2.83;;;10.90;85.10;;;;;;5046767;28;20124;-72
2021/01/14 09:36:03;;;;;;;3.20;2.88;;;10.90;85.10;;;;;;5047350;28;20067;-71
2021/01/14 09:38:29;;;;;;;3.47;2.95;;;10.90;85.10;;;;;;5032754;28;20087;-73
2021/01/14 09:40:56;;;;;;;2.70;2.33;;;10.90;85.10;;;;;;5045013;28;20025;-71
2021/01/14 09:43:26;;;;;;;3.03;2.28;;;10.90;85.10;;;;;;5044955;28;20036;-72
2021/01/14 09:45:52;;;;;;;8.80;3.17;;;10.90;85.10;;;;;;5046284;28;20032;-73
2021/01/14 09:48:22;;;;;;;3.80;2.58;;;11.00;85.30;;;;;;5051864;28;20028;-73
2021/01/14 09:50:50;;;;;;;2.92;2.20;;;11.00;85.30;;;;;;5066933;28;20192;-73
2021/01/14 09:53:17;;;;;;;3.42;2.58;;;11.00;85.80;;;;;;5066774;28;20024;-72
2021/01/14 09:55:44;;;;;;;3.10;2.17;;;11.00;85.20;;;;;;5052246;28;20031;-73
2021/01/14 09:58:21;;;;;;;3.15;2.83;;;11.00;85.30;;;;;;5046103;28;20029;-73
2021/01/14 10:00:51;;;;;;;3.97;2.97;;;11.00;85.20;;;;;;5045803;28;20123;-73
2021/01/14 10:03:21;;;;;;;2.33;2.13;;;11.10;85.40;;;;;;5028626;28;20037;-73
2021/01/14 10:05:50;;;;;;;2.97;1.90;;;11.10;85.30;;;;;;5046114;28;20090;-73
2021/01/14 10:08:29;;;;;;;4.45;2.42;;;11.10;85.30;;;;;;5045627;28;20029;-72
2021/01/14 10:10:56;;;;;;;2.38;2.00;;;11.20;85.60;;;;;;5053093;28;20074;-73
2021/01/14 10:13:22;;;;;;;2.78;1.98;;;11.20;85.50;;;;;;5060283;28;20029;-73
2021/01/14 10:15:48;;;;;;;2.85;2.55;;;11.20;85.40;;;;;;5059173;28;20123;-73
2021/01/14 10:18:25;;;;;;;2.53;2.08;;;11.30;85.60;;;;;;5059882;28;20287;-72
2021/01/14 10:20:59;;;;;;;2.53;2.00;;;11.30;85.60;;;;;;5044288;28;20047;-74
2021/01/14 10:23:25;;;;;;;;;;;11.30;85.50;;;;;;5044812;28;20079;-72
2021/01/14 10:25:52;;;;;;;2.20;1.73;;;11.30;85.50;;;;;;5028061;28;19909;-73
2021/01/14 10:28:18;;;;;;;1.75;1.60;;;11.30;85.40;;;;;;5044518;28;20025;-73
2021/01/14 10:30:44;;;;;;;2.40;1.83;;;11.40;85.70;;;;;;5041491;28;20036;-72
2021/01/14 10:33:10;;;;;;;2.25;1.83;;;11.40;85.70;;;;;;5063241;28;20269;-73
2021/01/14 10:35:37;;;;;;;3.65;1.58;;;11.40;85.70;;;;;;5044999;28;20860;-73
2021/01/14 10:38:10;;;;;;;2.10;1.88;;;11.40;85.60;;;;;;5046066;28;20063;-72
2021/01/14 10:40:47;;;;;;;2.88;1.60;;;11.50;85.80;;;;;;5046277;28;20502;-72
2021/01/14 10:43:14;;;;;;;1.95;1.75;;;11.50;85.70;;;;;;5044928;28;20494;-73
2021/01/14 10:45:41;;;;;;;5.18;1.92;;;11.50;85.70;;;;;;5027553;28;20061;-72
2021/01/14 10:48:17;;;;;;;4.43;1.90;;;11.50;85.70;;;;;;5044685;28;20096;-72
2021/01/14 10:50:49;;;;;;;2.78;1.40;;;11.50;85.70;;;;;;5044525;28;20483;-75
2021/01/14 10:53:34;;;;;;;1.90;1.60;;;11.50;85.60;;;;;;5044442;28;20051;-74
2021/01/14 10:56:03;;;;;;;2.10;1.80;;;11.50;85.60;;;;;;5061397;28;20162;-74
2021/01/14 10:58:29;;;;;;;2.53;1.58;;;11.60;85.80;;;;;;5059339;28;20029;-75
2021/01/14 11:00:55;;;;;;;3.42;1.48;;;11.50;85.60;;;;;;5043934;28;20054;-74
2021/01/14 11:03:23;;;;;;;1.52;1.35;;;11.60;85.80;;;;;;5027536;28;20579;-75
2021/01/14 11:05:55;;;;;;;1.50;1.40;;;11.60;85.80;;;;;;5043858;28;20385;-74
2021/01/14 11:08:23;;;;;;;1.73;1.38;;;11.60;85.80;;;;;;5044164;28;20037;-73
2021/01/14 11:11:13;;;;;;;3.33;1.40;;;11.60;85.70;;;;;;5043841;28;20525;-73
2021/01/14 11:13:43;;;;;;;5.07;1.42;;;11.60;85.70;;;;;;5045193;28;20025;-72
2021/01/14 11:16:11;;;;;;;1.30;1.00;;;11.60;85.70;;;;;;5045936;28;20344;-73
2021/01/14 11:18:41;;;;;;;2.10;1.42;;;11.70;85.80;;;;;;5044805;28;20075;-72
2021/01/14 11:21:08;;;;;;;1.58;1.33;;;11.70;85.80;;;;;;5044716;28;20385;-73
2021/01/14 11:23:36;;;;;;;1.98;1.42;;;11.70;85.70;;;;;;5044291;28;20480;-73
2021/01/14 11:26:02;;;;;;;2.90;1.38;;;11.70;85.70;;;;;;5044865;28;20067;-74
2021/01/14 11:28:30;;;;;;;1.73;1.58;;;11.70;85.60;;;;;;5043533;28;20040;-73
2021/01/14 11:30:56;;;;;;;2.10;1.75;;;11.80;85.90;;;;;;5043307;28;20068;-73
2021/01/14 11:33:22;;;;;;;2.15;1.80;;;11.80;86.00;;;;;;5045291;28;20395;-76
2021/01/14 11:35:48;;;;;;;2.30;1.75;;;11.90;86.20;;;;;;5044544;28;20116;-73
2021/01/14 11:38:14;;;;;;;3.50;1.60;;;11.90;86.30;;;;;;5045120;28;20399;-74
2021/01/14 11:40:40;;;;;;;1.20;1.10;;;12.00;86.40;;;;;;5045538;28;20546;-73
2021/01/14 11:43:06;;;;;;;3.13;1.50;;;12.00;86.40;;;;;;5042514;28;20550;-73
2021/01/14 11:45:32;;;;;;;2.80;1.80;;;12.00;86.30;;;;;;5045180;28;20036;-73
2021/01/14 11:47:58;;;;;;;2.08;1.55;;;12.10;86.50;;;;;;5044647;28;20037;-73
2021/01/14 11:50:24;;;;;;;2.15;1.38;;;12.10;86.40;;;;;;5026691;28;20507;-73
2021/01/14 11:52:50;;;;;;;2.00;1.30;;;12.10;86.40;;;;;;5042380;28;20021;-73
2021/01/14 11:55:16;;;;;;;2.00;1.58;;;12.10;86.80;;;;;;5042970;28;20044;-74
2021/01/14 11:57:42;;;;;;;2.65;1.67;;;12.20;86.50;;;;;;5041447;28;20041;-74
2021/01/14 12:00:09;;;;;;;3.45;1.40;;;12.30;86.60;;;;;;5063389;28;20484;-74
2021/01/14 12:02:38;;;;;;;1.60;1.50;;;12.30;86.40;;;;;;5063229;28;20073;-74
2021/01/14 12:05:05;;;;;;;6.65;1.50;;;12.40;86.50;;;;;;5045631;28;20024;-74
2021/01/14 12:07:31;;;;;;;4.25;1.67;;;12.40;86.40;;;;;;5062446;28;20648;-74
2021/01/14 12:09:57;;;;;;;1.92;1.70;;;12.50;86.50;;;;;;5045432;28;20032;-73
2021/01/14 12:12:24;;;;;;;1.85;1.75;;;12.60;86.60;;;;;;5026858;28;20522;-73
2021/01/14 12:14:50;;;;;;;1.80;1.58;;;12.50;86.30;;;;;;5044055;28;20036;-73
2021/01/14 12:17:16;;;;;;;2.55;1.50;;;12.60;86.40;;;;;;5042890;28;20128;-74
2021/01/14 12:19:42;;;;;;;3.13;1.75;;;12.60;86.30;;;;;;5042585;28;20033;-74
2021/01/14 12:22:08;;;;;;;1.95;1.73;;;12.70;86.40;;;;;;5042876;28;20025;-74
2021/01/14 12:24:34;;;;;;;2.97;1.90;;;12.70;86.40;;;;;;5043211;28;20032;-73
2021/01/14 12:27:01;;;;;;;4.30;1.95;;;12.70;86.40;;;;;;5040958;28;20035;-73
2021/01/14 12:29:27;;;;;;;2.38;2.13;;;12.70;86.30;;;;;;5045491;28;20036;-73
2021/01/14 12:31:54;;;;;;;2.58;2.10;;;12.80;86.40;;;;;;5049235;28;20433;-73
2021/01/14 12:34:20;;;;;;;2.65;2.13;;;12.80;86.40;;;;;;5040334;28;20091;-74
2021/01/14 12:36:47;;;;;;;2.10;1.65;;;12.80;86.40;;;;;;5032829;28;20051;-73
2021/01/14 12:39:13;;;;;;;2.22;1.90;;;12.80;86.30;;;;;;5075245;28;20502;-73
2021/01/14 12:41:39;;;;;;;2.58;1.65;;;12.90;86.40;;;;;;5066747;28;20029;-73
2021/01/14 12:44:06;;;;;;;1.83;1.70;;;12.90;86.40;;;;;;5066468;28;20021;-73
2021/01/14 12:46:33;;;;;;;2.25;2.05;;;12.90;86.30;;;;;;5065608;28;20060;-73
2021/01/14 12:48:59;;;;;;;2.00;1.80;;;13.00;86.40;;;;;;5066493;28;20016;-73
2021/01/14 12:51:25;;;;;;;1.83;1.58;;;13.00;86.40;;;;;;5062827;28;20542;-73
2021/01/14 12:53:51;;;;;;;2.17;1.83;;;13.00;86.30;;;;;;5052917;28;20368;-73
2021/01/14 12:56:17;;;;;;;1.67;1.58;;;13.10;86.40;;;;;;5047739;28;20179;-73
2021/01/14 12:58:43;;;;;;;1.63;1.42;;;13.10;86.50;;;;;;5054545;28;20444;-73
2021/01/14 13:01:09;;;;;;;2.20;1.83;;;13.10;86.30;;;;;;5046746;28;20033;-73